Superior charter Township, MI

3:27 AM EDT on March 29, 2015 (GMT -0400)
Ypsilanti Twp NE | | Change Station
CLOSE
Current Station
Personal Weather Station
Location: Ypsilanti, MI
Elevation: 761 ft
Nearby Weather Stations

Elev 761 ft 42.26 °N, 83.59 °W | Updated 2 minutes ago

Clear
Clear
17.8 °F
Feels Like 18 °F
N
0.0
Wind Variable Wind from NW
Gusts 0.0 mph

Today
High -- | Low -- °F
--% Chance of Precip.
Yesterday
High -- | Low -- °F
Precip. -- in
7:22 AM 7:56 PM
Waxing Gibbous, 69% visible
Pressure 30.31 in
Visibility 10.0 miles
Clouds Clear
Windchill 18 °F
Dew Point 14 °F
Humidity 86%
Rainfall 0.00 in
Snow Depth Not available.
UV 0 out of 12
Pollen 4.70 out of 12
Air Quality Not available.
Flu Activity Not available.
METAR KYIP 290653Z AUTO 22003KT 10SM CLR M04/M10 A3029 RMK AO2 SLP262 T10441100 TSNO

More Conditions Fewer Conditions

Pressure 30.31 in
Visibility 10.0 miles
Clouds Clear
Windchill 18 °F
Dew Point 14 °F
Humidity 86%
Rainfall 0.00 in
Snow Depth Not available.
UV 0 out of 12
Pollen 4.70 out of 12
Air Quality Not available.
Flu Activity Not available.
METAR KYIP 290653Z AUTO 22003KT 10SM CLR M04/M10 A3029 RMK AO2 SLP262 T10441100 TSNO

More Conditions Fewer Conditions

10-Day Weather Forecast

Almanac

Astronomy

Mar. 29, 2015 Rise Set
Actual Time
Civil Twilight
Nautical Twilight
Astronomical Twilight
Moon
Length of Visible Light
Length of Day
Tomorrow will be .
, % of the Moon is Illuminated

Today's Extremes

State Highs State Lows

Community

WunderPhotos

Upload Photos

1,809,187 photos uploaded!

WunderBlogs® & News

Nearby

Air Quality

  Air Quality AQ Index Pollutant
Not available.

Snow Depth

Station Depth Elevation

Earthquake Activity

City Distance Mag. Time & Date
Minimum magnitude displayed is 2.5.

Coastal Water Temperatures

Place Temperature

Stations

Nearby Weather Stations

Station Location Temp. Windchill Dew Point Humidity Wind Precip. Elev Updated Type